0MI3 weather

Kelleys Airport
Grayling, Michigan, United States

Public forecast

Using degrees Fahrenheit for public forecast. Weather courtesy of forecast.io.

METAR (pilot weather report)

Closest report is Grayling Army Air Field, 10.9 nm (20.1 km) WNW. Retrieved 2019/06/15 20:58 UTC (1 hour ago):

KGOV 152058Z AUTO 03006KT M M CLR 19/10 A2983 RMK AO2 SLP106 T01870095 55007 PWINO $

TAF (pilot weather forecast)

Closest forecast is Cherry Capital Airport, 47.3 nm (87.7 km) W. Retrieved 2019/06/15 18:22 UTC (4 hours ago):

TAF KTVC 151720Z 1518/1618 01005KT P6SM BKN015 FM152000 01005KT P6SM BKN040 FM152100 01005KT P6SM SCT080 FM161700 VRB04KT P6SM BKN120